sensor_id;sensor_type;location;lat;lon;timestamp;temperature;humidity
652;DHT22;310;48.490;9.200;2023-03-23T00:01:24;17.30;26.30
652;DHT22;310;48.490;9.200;2023-03-23T00:03:53;17.30;24.90
652;DHT22;310;48.490;9.200;2023-03-23T00:06:24;17.40;24.80
652;DHT22;310;48.490;9.200;2023-03-23T00:08:51;17.10;25.70
652;DHT22;310;48.490;9.200;2023-03-23T00:11:24;17.20;25.20
652;DHT22;310;48.490;9.200;2023-03-23T00:13:52;17.40;24.80
652;DHT22;310;48.490;9.200;2023-03-23T00:16:22;17.30;26.90
652;DHT22;310;48.490;9.200;2023-03-23T00:18:57;17.30;25.70
652;DHT22;310;48.490;9.200;2023-03-23T00:21:29;17.50;24.90
652;DHT22;310;48.490;9.200;2023-03-23T00:24:07;17.40;24.80
652;DHT22;310;48.490;9.200;2023-03-23T00:26:38;17.10;27.80
652;DHT22;310;48.490;9.200;2023-03-23T00:29:17;17.10;25.80
652;DHT22;310;48.490;9.200;2023-03-23T00:31:44;17.30;26.00
652;DHT22;310;48.490;9.200;2023-03-23T00:34:19;17.10;27.50
652;DHT22;310;48.490;9.200;2023-03-23T00:36:47;17.10;26.90
652;DHT22;310;48.490;9.200;2023-03-23T00:39:13;17.50;24.20
652;DHT22;310;48.490;9.200;2023-03-23T00:41:44;17.20;26.00
652;DHT22;310;48.490;9.200;2023-03-23T00:44:11;17.00;26.40
652;DHT22;310;48.490;9.200;2023-03-23T00:46:42;17.00;26.60
652;DHT22;310;48.490;9.200;2023-03-23T00:49:17;17.20;25.30
652;DHT22;310;48.490;9.200;2023-03-23T00:51:44;17.30;25.60
652;DHT22;310;48.490;9.200;2023-03-23T00:54:10;17.60;24.30
652;DHT22;310;48.490;9.200;2023-03-23T00:56:37;17.80;23.80
652;DHT22;310;48.490;9.200;2023-03-23T00:59:05;17.90;24.10
652;DHT22;310;48.490;9.200;2023-03-23T01:01:31;17.70;24.30
652;DHT22;310;48.490;9.200;2023-03-23T01:04:01;17.60;24.30
652;DHT22;310;48.490;9.200;2023-03-23T01:06:30;17.70;24.40
652;DHT22;310;48.490;9.200;2023-03-23T01:08:57;16.60;26.20
652;DHT22;310;48.490;9.200;2023-03-23T01:11:24;16.00;27.40
652;DHT22;310;48.490;9.200;2023-03-23T01:13:50;16.30;28.00
652;DHT22;310;48.490;9.200;2023-03-23T01:16:16;16.80;27.00
652;DHT22;310;48.490;9.200;2023-03-23T01:18:42;16.90;27.60
652;DHT22;310;48.490;9.200;2023-03-23T01:21:10;16.90;27.50
652;DHT22;310;48.490;9.200;2023-03-23T01:23:39;17.10;26.20
652;DHT22;310;48.490;9.200;2023-03-23T01:26:25;17.10;26.10
652;DHT22;310;48.490;9.200;2023-03-23T01:28:51;17.00;26.30
652;DHT22;310;48.490;9.200;2023-03-23T01:31:20;17.00;26.60
652;DHT22;310;48.490;9.200;2023-03-23T01:33:47;17.00;26.50
652;DHT22;310;48.490;9.200;2023-03-23T01:36:39;16.50;27.10
652;DHT22;310;48.490;9.200;2023-03-23T01:39:05;15.90;27.70
652;DHT22;310;48.490;9.200;2023-03-23T01:41:32;16.10;27.70
652;DHT22;310;48.490;9.200;2023-03-23T01:46:33;16.50;27.70
652;DHT22;310;48.490;9.200;2023-03-23T01:49:11;16.90;26.50
652;DHT22;310;48.490;9.200;2023-03-23T01:51:52;16.90;27.30
652;DHT22;310;48.490;9.200;2023-03-23T01:54:22;17.00;27.00
652;DHT22;310;48.490;9.200;2023-03-23T01:56:52;16.90;27.80
652;DHT22;310;48.490;9.200;2023-03-23T01:59:19;16.80;29.00
652;DHT22;310;48.490;9.200;2023-03-23T02:01:46;16.90;27.20
652;DHT22;310;48.490;9.200;2023-03-23T02:04:13;16.50;27.00
652;DHT22;310;48.490;9.200;2023-03-23T02:06:40;16.40;27.00
652;DHT22;310;48.490;9.200;2023-03-23T02:09:06;16.40;27.00
652;DHT22;310;48.490;9.200;2023-03-23T02:11:32;16.40;27.10
652;DHT22;310;48.490;9.200;2023-03-23T02:13:58;16.50;26.30
652;DHT22;310;48.490;9.200;2023-03-23T02:20:22;16.60;27.20
652;DHT22;310;48.490;9.200;2023-03-23T02:35:52;17.50;23.20
652;DHT22;310;48.490;9.200;2023-03-23T02:38:39;17.30;23.60
652;DHT22;310;48.490;9.200;2023-03-23T02:41:08;17.50;23.60
652;DHT22;310;48.490;9.200;2023-03-23T02:43:40;17.90;22.90
652;DHT22;310;48.490;9.200;2023-03-23T02:46:08;17.60;23.50
652;DHT22;310;48.490;9.200;2023-03-23T02:48:36;17.50;23.80
652;DHT22;310;48.490;9.200;2023-03-23T02:51:04;17.50;23.80
652;DHT22;310;48.490;9.200;2023-03-23T02:53:34;17.70;23.50
652;DHT22;310;48.490;9.200;2023-03-23T02:56:01;18.00;23.10
652;DHT22;310;48.490;9.200;2023-03-23T02:58:28;18.00;23.00
652;DHT22;310;48.490;9.200;2023-03-23T03:00:55;18.20;22.70
652;DHT22;310;48.490;9.200;2023-03-23T03:03:24;18.30;22.50
652;DHT22;310;48.490;9.200;2023-03-23T03:08:35;18.20;22.70
652;DHT22;310;48.490;9.200;2023-03-23T03:11:17;18.40;23.40
652;DHT22;310;48.490;9.200;2023-03-23T03:13:54;18.80;22.80
652;DHT22;310;48.490;9.200;2023-03-23T03:16:35;18.90;21.60
652;DHT22;310;48.490;9.200;2023-03-23T03:19:03;19.10;21.50
652;DHT22;310;48.490;9.200;2023-03-23T03:21:36;19.20;21.70
652;DHT22;310;48.490;9.200;2023-03-23T03:24:03;19.40;21.80
652;DHT22;310;48.490;9.200;2023-03-23T03:26:34;18.80;22.50
652;DHT22;310;48.490;9.200;2023-03-23T03:29:01;18.70;22.30
652;DHT22;310;48.490;9.200;2023-03-23T03:31:30;18.70;23.10
652;DHT22;310;48.490;9.200;2023-03-23T03:33:57;18.60;23.00
652;DHT22;310;48.490;9.200;2023-03-23T03:36:29;18.10;22.90
652;DHT22;310;48.490;9.200;2023-03-23T03:39:02;18.10;22.90
652;DHT22;310;48.490;9.200;2023-03-23T03:41:34;18.50;22.40
652;DHT22;310;48.490;9.200;2023-03-23T03:44:00;18.20;23.80
652;DHT22;310;48.490;9.200;2023-03-23T03:46:26;18.10;23.40
652;DHT22;310;48.490;9.200;2023-03-23T03:48:55;17.90;22.40
652;DHT22;310;48.490;9.200;2023-03-23T03:51:22;18.00;22.80
652;DHT22;310;48.490;9.200;2023-03-23T03:53:48;18.20;22.10
652;DHT22;310;48.490;9.200;2023-03-23T03:56:14;18.50;22.60
652;DHT22;310;48.490;9.200;2023-03-23T03:58:39;18.40;22.00
652;DHT22;310;48.490;9.200;2023-03-23T04:01:08;18.30;22.60
652;DHT22;310;48.490;9.200;2023-03-23T04:03:36;18.40;22.60
652;DHT22;310;48.490;9.200;2023-03-23T04:06:02;18.50;21.90
652;DHT22;310;48.490;9.200;2023-03-23T04:08:28;18.30;22.40
652;DHT22;310;48.490;9.200;2023-03-23T04:10:54;18.20;22.30
652;DHT22;310;48.490;9.200;2023-03-23T04:13:20;18.00;22.80
652;DHT22;310;48.490;9.200;2023-03-23T04:15:47;17.90;23.10
652;DHT22;310;48.490;9.200;2023-03-23T04:18:13;17.80;23.00
652;DHT22;310;48.490;9.200;2023-03-23T04:20:41;17.90;23.10
652;DHT22;310;48.490;9.200;2023-03-23T04:23:08;17.90;23.30
652;DHT22;310;48.490;9.200;2023-03-23T04:25:33;17.50;23.90
652;DHT22;310;48.490;9.200;2023-03-23T04:28:01;17.60;23.30
652;DHT22;310;48.490;9.200;2023-03-23T04:30:28;17.40;23.50
652;DHT22;310;48.490;9.200;2023-03-23T04:32:54;16.90;23.80
652;DHT22;310;48.490;9.200;2023-03-23T04:35:22;16.90;24.10
652;DHT22;310;48.490;9.200;2023-03-23T04:37:50;17.20;24.00
652;DHT22;310;48.490;9.200;2023-03-23T04:40:16;17.30;24.00
652;DHT22;310;48.490;9.200;2023-03-23T04:42:43;17.10;23.90
652;DHT22;310;48.490;9.200;2023-03-23T04:45:14;17.00;23.80
652;DHT22;310;48.490;9.200;2023-03-23T04:47:40;17.20;24.00
652;DHT22;310;48.490;9.200;2023-03-23T04:50:11;16.90;24.30
652;DHT22;310;48.490;9.200;2023-03-23T04:52:39;17.10;23.90
652;DHT22;310;48.490;9.200;2023-03-23T04:55:07;17.40;23.60
652;DHT22;310;48.490;9.200;2023-03-23T04:57:34;17.20;24.00
652;DHT22;310;48.490;9.200;2023-03-23T05:00:02;17.20;24.00
652;DHT22;310;48.490;9.200;2023-03-23T05:02:37;17.40;23.90
652;DHT22;310;48.490;9.200;2023-03-23T05:05:05;17.60;23.30
652;DHT22;310;48.490;9.200;2023-03-23T05:07:31;17.80;23.20
652;DHT22;310;48.490;9.200;2023-03-23T05:09:57;17.60;23.40
652;DHT22;310;48.490;9.200;2023-03-23T05:12:22;17.60;23.40
652;DHT22;310;48.490;9.200;2023-03-23T05:14:48;17.70;23.30
652;DHT22;310;48.490;9.200;2023-03-23T05:17:14;17.90;22.50
652;DHT22;310;48.490;9.200;2023-03-23T05:19:42;17.70;22.80
652;DHT22;310;48.490;9.200;2023-03-23T05:22:10;17.70;23.10
652;DHT22;310;48.490;9.200;2023-03-23T05:24:38;17.90;22.70
652;DHT22;310;48.490;9.200;2023-03-23T05:27:03;17.90;22.80
652;DHT22;310;48.490;9.200;2023-03-23T05:29:29;17.50;23.50
652;DHT22;310;48.490;9.200;2023-03-23T05:31:56;17.80;23.00
652;DHT22;310;48.490;9.200;2023-03-23T05:34:28;18.10;23.50
652;DHT22;310;48.490;9.200;2023-03-23T05:36:54;18.10;22.80
652;DHT22;310;48.490;9.200;2023-03-23T05:39:21;18.00;23.60
652;DHT22;310;48.490;9.200;2023-03-23T05:41:46;17.90;22.90
652;DHT22;310;48.490;9.200;2023-03-23T05:44:12;17.90;23.30
652;DHT22;310;48.490;9.200;2023-03-23T05:46:39;17.90;22.80
652;DHT22;310;48.490;9.200;2023-03-23T05:49:05;17.80;23.20
652;DHT22;310;48.490;9.200;2023-03-23T05:51:30;17.90;23.20
652;DHT22;310;48.490;9.200;2023-03-23T05:53:56;18.10;22.40
652;DHT22;310;48.490;9.200;2023-03-23T05:56:22;17.90;23.30
652;DHT22;310;48.490;9.200;2023-03-23T05:58:48;17.70;23.50
652;DHT22;310;48.490;9.200;2023-03-23T06:01:14;17.80;23.20
652;DHT22;310;48.490;9.200;2023-03-23T06:03:41;17.90;23.30
652;DHT22;310;48.490;9.200;2023-03-23T06:06:10;18.00;23.20
652;DHT22;310;48.490;9.200;2023-03-23T06:08:36;17.80;23.50
652;DHT22;310;48.490;9.200;2023-03-23T06:11:03;17.80;23.80
652;DHT22;310;48.490;9.200;2023-03-23T06:13:29;17.90;23.00
652;DHT22;310;48.490;9.200;2023-03-23T06:15:57;18.30;22.40
652;DHT22;310;48.490;9.200;2023-03-23T06:18:24;18.50;22.60
652;DHT22;310;48.490;9.200;2023-03-23T06:20:50;18.80;21.80
652;DHT22;310;48.490;9.200;2023-03-23T06:23:16;18.90;21.40
652;DHT22;310;48.490;9.200;2023-03-23T06:25:43;18.90;21.80
652;DHT22;310;48.490;9.200;2023-03-23T06:28:09;18.90;21.80
652;DHT22;310;48.490;9.200;2023-03-23T06:30:36;19.00;21.70
652;DHT22;310;48.490;9.200;2023-03-23T06:33:01;19.10;21.90
652;DHT22;310;48.490;9.200;2023-03-23T06:35:33;19.10;21.60
652;DHT22;310;48.490;9.200;2023-03-23T06:37:59;19.10;21.60
652;DHT22;310;48.490;9.200;2023-03-23T06:40:27;19.00;22.30
652;DHT22;310;48.490;9.200;2023-03-23T06:42:54;19.30;21.50
652;DHT22;310;48.490;9.200;2023-03-23T06:45:19;19.70;21.10
652;DHT22;310;48.490;9.200;2023-03-23T06:47:46;19.70;21.80
652;DHT22;310;48.490;9.200;2023-03-23T06:50:14;19.20;22.30
652;DHT22;310;48.490;9.200;2023-03-23T06:52:41;19.50;21.70
652;DHT22;310;48.490;9.200;2023-03-23T06:55:10;19.20;22.60
652;DHT22;310;48.490;9.200;2023-03-23T06:57:36;19.10;23.00
652;DHT22;310;48.490;9.200;2023-03-23T07:00:03;19.10;23.00
652;DHT22;310;48.490;9.200;2023-03-23T07:02:31;19.20;23.00
652;DHT22;310;48.490;9.200;2023-03-23T07:04:56;19.30;22.70
652;DHT22;310;48.490;9.200;2023-03-23T07:07:22;19.30;22.60
652;DHT22;310;48.490;9.200;2023-03-23T07:09:48;19.40;22.60
652;DHT22;310;48.490;9.200;2023-03-23T07:12:14;19.50;20.60
652;DHT22;310;48.490;9.200;2023-03-23T07:14:39;19.40;20.90
652;DHT22;310;48.490;9.200;2023-03-23T07:17:05;19.60;20.60
652;DHT22;310;48.490;9.200;2023-03-23T07:19:32;19.70;20.70
652;DHT22;310;48.490;9.200;2023-03-23T07:21:58;19.00;21.40
652;DHT22;310;48.490;9.200;2023-03-23T07:24:24;19.00;21.40
652;DHT22;310;48.490;9.200;2023-03-23T07:26:50;18.60;21.80
652;DHT22;310;48.490;9.200;2023-03-23T07:29:16;18.30;22.30
652;DHT22;310;48.490;9.200;2023-03-23T07:31:42;18.40;22.20
652;DHT22;310;48.490;9.200;2023-03-23T07:34:07;18.50;22.00
652;DHT22;310;48.490;9.200;2023-03-23T07:36:33;18.90;22.10
652;DHT22;310;48.490;9.200;2023-03-23T07:39:03;19.10;22.30
652;DHT22;310;48.490;9.200;2023-03-23T07:41:31;18.90;22.10
652;DHT22;310;48.490;9.200;2023-03-23T07:43:56;19.20;21.50
652;DHT22;310;48.490;9.200;2023-03-23T07:46:22;19.20;21.60
652;DHT22;310;48.490;9.200;2023-03-23T07:48:48;18.90;22.20
652;DHT22;310;48.490;9.200;2023-03-23T07:51:14;18.90;22.30
652;DHT22;310;48.490;9.200;2023-03-23T07:53:42;18.30;23.30
652;DHT22;310;48.490;9.200;2023-03-23T07:56:13;17.90;23.90
652;DHT22;310;48.490;9.200;2023-03-23T07:58:41;17.80;24.30
652;DHT22;310;48.490;9.200;2023-03-23T08:01:07;17.80;24.40
652;DHT22;310;48.490;9.200;2023-03-23T08:03:33;18.20;23.80
652;DHT22;310;48.490;9.200;2023-03-23T08:05:59;18.40;23.50
652;DHT22;310;48.490;9.200;2023-03-23T08:08:25;18.40;23.80
652;DHT22;310;48.490;9.200;2023-03-23T08:10:51;19.00;22.80
652;DHT22;310;48.490;9.200;2023-03-23T08:13:17;19.20;22.60
652;DHT22;310;48.490;9.200;2023-03-23T08:15:44;19.30;22.60
652;DHT22;310;48.490;9.200;2023-03-23T08:18:10;19.00;22.90
652;DHT22;310;48.490;9.200;2023-03-23T08:20:36;19.00;23.30
652;DHT22;310;48.490;9.200;2023-03-23T08:23:02;18.90;23.30
652;DHT22;310;48.490;9.200;2023-03-23T08:25:29;19.20;23.30
652;DHT22;310;48.490;9.200;2023-03-23T08:27:59;19.60;22.70
652;DHT22;310;48.490;9.200;2023-03-23T08:30:27;19.00;23.20
652;DHT22;310;48.490;9.200;2023-03-23T08:32:58;19.20;23.60
652;DHT22;310;48.490;9.200;2023-03-23T08:35:26;19.70;23.60
652;DHT22;310;48.490;9.200;2023-03-23T08:37:51;19.70;23.00
652;DHT22;310;48.490;9.200;2023-03-23T08:40:20;19.50;23.20
652;DHT22;310;48.490;9.200;2023-03-23T08:42:47;18.80;24.30
652;DHT22;310;48.490;9.200;2023-03-23T08:45:15;18.30;24.80
652;DHT22;310;48.490;9.200;2023-03-23T08:47:42;18.50;24.90
652;DHT22;310;48.490;9.200;2023-03-23T08:50:14;18.60;25.00
652;DHT22;310;48.490;9.200;2023-03-23T08:52:40;18.70;25.00
652;DHT22;310;48.490;9.200;2023-03-23T08:55:06;18.20;25.80
652;DHT22;310;48.490;9.200;2023-03-23T08:57:34;18.10;25.90
652;DHT22;310;48.490;9.200;2023-03-23T09:00:02;17.60;26.70
652;DHT22;310;48.490;9.200;2023-03-23T09:02:41;17.50;27.30
652;DHT22;310;48.490;9.200;2023-03-23T09:05:08;17.50;27.40
652;DHT22;310;48.490;9.200;2023-03-23T09:07:39;17.70;27.30
652;DHT22;310;48.490;9.200;2023-03-23T09:10:06;17.70;27.40
652;DHT22;310;48.490;9.200;2023-03-23T09:12:32;17.90;27.20
652;DHT22;310;48.490;9.200;2023-03-23T09:14:57;17.30;27.90
652;DHT22;310;48.490;9.200;2023-03-23T09:17:23;17.80;27.60
652;DHT22;310;48.490;9.200;2023-03-23T09:19:49;18.30;27.30
652;DHT22;310;48.490;9.200;2023-03-23T09:22:14;18.40;26.80
652;DHT22;310;48.490;9.200;2023-03-23T09:24:45;18.40;27.40
652;DHT22;310;48.490;9.200;2023-03-23T09:27:11;18.10;27.70
652;DHT22;310;48.490;9.200;2023-03-23T09:29:37;17.70;28.80
652;DHT22;310;48.490;9.200;2023-03-23T09:32:03;17.70;28.90
652;DHT22;310;48.490;9.200;2023-03-23T09:34:29;17.70;28.80
652;DHT22;310;48.490;9.200;2023-03-23T09:36:54;18.20;28.10
652;DHT22;310;48.490;9.200;2023-03-23T09:39:20;18.60;27.20
652;DHT22;310;48.490;9.200;2023-03-23T09:49:44;18.50;27.80
652;DHT22;310;48.490;9.200;2023-03-23T09:52:14;18.90;27.00
652;DHT22;310;48.490;9.200;2023-03-23T09:54:49;18.40;27.30
652;DHT22;310;48.490;9.200;2023-03-23T10:03:26;18.90;27.00
652;DHT22;310;48.490;9.200;2023-03-23T10:05:54;18.90;26.50
652;DHT22;310;48.490;9.200;2023-03-23T10:08:26;19.10;25.70
652;DHT22;310;48.490;9.200;2023-03-23T10:16:28;20.10;25.30
652;DHT22;310;48.490;9.200;2023-03-23T10:19:03;20.70;25.40
652;DHT22;310;48.490;9.200;2023-03-23T10:21:35;21.00;23.50
652;DHT22;310;48.490;9.200;2023-03-23T10:24:04;20.40;23.60
652;DHT22;310;48.490;9.200;2023-03-23T10:32:19;19.80;25.20
652;DHT22;310;48.490;9.200;2023-03-23T10:34:51;19.90;24.80
652;DHT22;310;48.490;9.200;2023-03-23T10:37:34;19.60;25.70
652;DHT22;310;48.490;9.200;2023-03-23T10:40:03;18.90;26.50
652;DHT22;310;48.490;9.200;2023-03-23T10:42:36;19.60;26.60
652;DHT22;310;48.490;9.200;2023-03-23T10:45:20;19.10;26.60
652;DHT22;310;48.490;9.200;2023-03-23T10:48:07;18.60;27.80
652;DHT22;310;48.490;9.200;2023-03-23T10:50:36;18.50;27.70
652;DHT22;310;48.490;9.200;2023-03-23T10:53:26;19.00;27.30
652;DHT22;310;48.490;9.200;2023-03-23T10:55:53;18.90;27.60
652;DHT22;310;48.490;9.200;2023-03-23T10:58:38;19.30;27.60
652;DHT22;310;48.490;9.200;2023-03-23T11:01:05;19.40;27.90
652;DHT22;310;48.490;9.200;2023-03-23T11:03:47;19.60;27.50
652;DHT22;310;48.490;9.200;2023-03-23T11:06:28;19.90;26.70
652;DHT22;310;48.490;9.200;2023-03-23T11:09:01;19.60;27.20
652;DHT22;310;48.490;9.200;2023-03-23T11:11:37;19.80;26.50
652;DHT22;310;48.490;9.200;2023-03-23T11:14:33;20.10;26.70
652;DHT22;310;48.490;9.200;2023-03-23T11:17:03;20.50;26.00
652;DHT22;310;48.490;9.200;2023-03-23T11:19:31;20.80;25.20
652;DHT22;310;48.490;9.200;2023-03-23T11:24:36;19.90;24.80
652;DHT22;310;48.490;9.200;2023-03-23T11:27:06;19.60;25.00
652;DHT22;310;48.490;9.200;2023-03-23T11:29:35;19.50;25.30
652;DHT22;310;48.490;9.200;2023-03-23T11:32:05;19.80;24.90
652;DHT22;310;48.490;9.200;2023-03-23T11:39:31;20.40;23.30
652;DHT22;310;48.490;9.200;2023-03-23T11:41:59;20.40;24.00
652;DHT22;310;48.490;9.200;2023-03-23T11:44:43;20.50;23.30
652;DHT22;310;48.490;9.200;2023-03-23T11:47:38;20.70;23.10
652;DHT22;310;48.490;9.200;2023-03-23T11:50:20;21.10;22.90
652;DHT22;310;48.490;9.200;2023-03-23T11:53:10;21.40;22.10
652;DHT22;310;48.490;9.200;2023-03-23T11:58:18;21.10;22.90
652;DHT22;310;48.490;9.200;2023-03-23T12:00:56;20.40;23.30
652;DHT22;310;48.490;9.200;2023-03-23T12:08:24;21.80;21.90
652;DHT22;310;48.490;9.200;2023-03-23T12:24:43;21.40;22.30
652;DHT22;310;48.490;9.200;2023-03-23T12:29:59;20.40;23.00
652;DHT22;310;48.490;9.200;2023-03-23T12:35:38;20.40;23.20
652;DHT22;310;48.490;9.200;2023-03-23T12:40:44;20.10;23.60
652;DHT22;310;48.490;9.200;2023-03-23T12:43:26;20.20;24.00
652;DHT22;310;48.490;9.200;2023-03-23T12:49:00;20.20;23.20
652;DHT22;310;48.490;9.200;2023-03-23T12:51:37;19.90;23.90
652;DHT22;310;48.490;9.200;2023-03-23T12:54:24;19.60;24.40
652;DHT22;310;48.490;9.200;2023-03-23T12:57:04;19.80;24.80
652;DHT22;310;48.490;9.200;2023-03-23T12:59:48;19.90;23.80
652;DHT22;310;48.490;9.200;2023-03-23T13:05:13;20.70;22.70
652;DHT22;310;48.490;9.200;2023-03-23T13:10:47;20.10;23.10
652;DHT22;310;48.490;9.200;2023-03-23T13:13:20;19.90;23.20
652;DHT22;310;48.490;9.200;2023-03-23T13:16:10;19.60;23.70
652;DHT22;310;48.490;9.200;2023-03-23T13:18:56;19.60;23.90
652;DHT22;310;48.490;9.200;2023-03-23T13:24:20;20.00;23.10
652;DHT22;310;48.490;9.200;2023-03-23T13:26:49;20.30;22.90
652;DHT22;310;48.490;9.200;2023-03-23T13:29:21;20.50;22.80
652;DHT22;310;48.490;9.200;2023-03-23T13:31:50;20.90;22.10
652;DHT22;310;48.490;9.200;2023-03-23T13:34:19;20.80;21.90
652;DHT22;310;48.490;9.200;2023-03-23T13:37:03;20.30;22.80
652;DHT22;310;48.490;9.200;2023-03-23T13:39:33;21.20;21.90
652;DHT22;310;48.490;9.200;2023-03-23T13:44:44;20.40;22.70
652;DHT22;310;48.490;9.200;2023-03-23T13:49:54;21.70;21.60
652;DHT22;310;48.490;9.200;2023-03-23T13:52:24;22.40;20.90
652;DHT22;310;48.490;9.200;2023-03-23T13:54:51;22.50;20.30
652;DHT22;310;48.490;9.200;2023-03-23T13:57:48;21.60;22.90
652;DHT22;310;48.490;9.200;2023-03-23T14:08:25;21.30;22.30
652;DHT22;310;48.490;9.200;2023-03-23T14:11:24;21.40;22.00
652;DHT22;310;48.490;9.200;2023-03-23T14:14:13;20.80;22.40
652;DHT22;310;48.490;9.200;2023-03-23T14:16:43;20.20;22.70
652;DHT22;310;48.490;9.200;2023-03-23T14:19:28;20.50;22.60
652;DHT22;310;48.490;9.200;2023-03-23T14:21:59;20.90;21.30
652;DHT22;310;48.490;9.200;2023-03-23T14:24:31;21.30;21.80
652;DHT22;310;48.490;9.200;2023-03-23T14:27:13;21.40;20.70
652;DHT22;310;48.490;9.200;2023-03-23T14:29:39;20.70;21.50
652;DHT22;310;48.490;9.200;2023-03-23T14:32:07;20.90;21.30
652;DHT22;310;48.490;9.200;2023-03-23T14:34:34;20.70;21.70
652;DHT22;310;48.490;9.200;2023-03-23T14:37:00;21.00;21.10
652;DHT22;310;48.490;9.200;2023-03-23T14:39:32;20.70;21.40
652;DHT22;310;48.490;9.200;2023-03-23T14:42:03;20.90;21.50
652;DHT22;310;48.490;9.200;2023-03-23T14:44:33;21.10;20.90
652;DHT22;310;48.490;9.200;2023-03-23T14:47:04;21.00;21.20
652;DHT22;310;48.490;9.200;2023-03-23T14:49:35;20.50;22.00
652;DHT22;310;48.490;9.200;2023-03-23T14:54:37;21.00;21.10
652;DHT22;310;48.490;9.200;2023-03-23T14:57:18;21.00;21.40
652;DHT22;310;48.490;9.200;2023-03-23T14:59:45;20.70;21.50
652;DHT22;310;48.490;9.200;2023-03-23T15:04:45;21.00;21.70
652;DHT22;310;48.490;9.200;2023-03-23T15:07:13;21.40;21.40
652;DHT22;310;48.490;9.200;2023-03-23T15:09:43;21.40;21.20
652;DHT22;310;48.490;9.200;2023-03-23T15:12:20;21.70;20.90
652;DHT22;310;48.490;9.200;2023-03-23T15:14:52;21.20;21.30
652;DHT22;310;48.490;9.200;2023-03-23T15:17:30;20.80;21.70
652;DHT22;310;48.490;9.200;2023-03-23T15:19:57;20.70;22.10
652;DHT22;310;48.490;9.200;2023-03-23T15:22:29;20.60;22.20
652;DHT22;310;48.490;9.200;2023-03-23T15:27:38;20.30;22.50
652;DHT22;310;48.490;9.200;2023-03-23T15:32:51;19.50;23.50
652;DHT22;310;48.490;9.200;2023-03-23T15:35:19;19.60;23.70
652;DHT22;310;48.490;9.200;2023-03-23T15:37:56;19.80;23.40
652;DHT22;310;48.490;9.200;2023-03-23T15:40:24;20.10;22.90
652;DHT22;310;48.490;9.200;2023-03-23T15:43:48;20.40;22.60
652;DHT22;310;48.490;9.200;2023-03-23T15:45:37;20.20;22.70
652;DHT22;310;48.490;9.200;2023-03-23T15:48:13;20.10;22.90
652;DHT22;310;48.490;9.200;2023-03-23T15:50:40;20.30;22.80
652;DHT22;310;48.490;9.200;2023-03-23T15:53:44;20.00;22.80
652;DHT22;310;48.490;9.200;2023-03-23T15:56:12;20.10;22.80
652;DHT22;310;48.490;9.200;2023-03-23T15:58:38;19.80;23.20
652;DHT22;310;48.490;9.200;2023-03-23T16:01:25;19.10;24.20
652;DHT22;310;48.490;9.200;2023-03-23T16:04:11;19.30;24.00
652;DHT22;310;48.490;9.200;2023-03-23T16:06:38;19.50;23.90
652;DHT22;310;48.490;9.200;2023-03-23T16:09:05;19.30;24.30
652;DHT22;310;48.490;9.200;2023-03-23T16:11:32;20.10;23.20
652;DHT22;310;48.490;9.200;2023-03-23T16:13:58;20.10;23.30
652;DHT22;310;48.490;9.200;2023-03-23T16:16:27;20.30;23.20
652;DHT22;310;48.490;9.200;2023-03-23T16:18:54;20.30;23.10
652;DHT22;310;48.490;9.200;2023-03-23T16:21:20;20.30;22.70
652;DHT22;310;48.490;9.200;2023-03-23T16:23:46;20.50;22.60
652;DHT22;310;48.490;9.200;2023-03-23T16:26:14;20.40;22.90
652;DHT22;310;48.490;9.200;2023-03-23T16:28:40;19.90;23.20
652;DHT22;310;48.490;9.200;2023-03-23T16:31:06;19.70;23.90
652;DHT22;310;48.490;9.200;2023-03-23T16:33:32;20.10;23.30
652;DHT22;310;48.490;9.200;2023-03-23T16:35:57;20.60;22.70
652;DHT22;310;48.490;9.200;2023-03-23T16:38:24;20.50;22.70
652;DHT22;310;48.490;9.200;2023-03-23T16:40:50;20.60;22.90
652;DHT22;310;48.490;9.200;2023-03-23T16:43:15;20.80;22.30
652;DHT22;310;48.490;9.200;2023-03-23T16:45:43;20.10;23.10
652;DHT22;310;48.490;9.200;2023-03-23T16:48:10;20.20;23.20
652;DHT22;310;48.490;9.200;2023-03-23T16:50:37;20.50;22.80
652;DHT22;310;48.490;9.200;2023-03-23T16:53:04;20.10;23.20
652;DHT22;310;48.490;9.200;2023-03-23T16:55:30;20.10;23.40
652;DHT22;310;48.490;9.200;2023-03-23T16:57:57;20.20;23.40
652;DHT22;310;48.490;9.200;2023-03-23T17:00:23;20.40;23.90
652;DHT22;310;48.490;9.200;2023-03-23T17:02:51;20.30;23.10
652;DHT22;310;48.490;9.200;2023-03-23T17:05:19;20.40;23.20
652;DHT22;310;48.490;9.200;2023-03-23T17:07:45;20.60;22.50
652;DHT22;310;48.490;9.200;2023-03-23T17:10:12;20.50;22.70
652;DHT22;310;48.490;9.200;2023-03-23T17:12:38;20.40;22.50
652;DHT22;310;48.490;9.200;2023-03-23T17:15:05;20.00;23.00
652;DHT22;310;48.490;9.200;2023-03-23T17:17:31;20.20;22.80
652;DHT22;310;48.490;9.200;2023-03-23T17:19:57;20.40;22.50
652;DHT22;310;48.490;9.200;2023-03-23T17:22:23;20.20;23.00
652;DHT22;310;48.490;9.200;2023-03-23T17:24:49;19.80;23.70
652;DHT22;310;48.490;9.200;2023-03-23T17:27:16;19.60;23.60
652;DHT22;310;48.490;9.200;2023-03-23T17:29:43;19.90;23.10
652;DHT22;310;48.490;9.200;2023-03-23T17:32:09;20.40;22.50
652;DHT22;310;48.490;9.200;2023-03-23T17:34:34;20.40;22.50
652;DHT22;310;48.490;9.200;2023-03-23T17:37:00;20.30;22.60
652;DHT22;310;48.490;9.200;2023-03-23T17:39:26;20.20;22.70
652;DHT22;310;48.490;9.200;2023-03-23T17:41:52;19.60;23.40
652;DHT22;310;48.490;9.200;2023-03-23T17:44:18;19.50;23.60
652;DHT22;310;48.490;9.200;2023-03-23T17:46:44;19.80;23.40
652;DHT22;310;48.490;9.200;2023-03-23T17:49:09;19.60;23.50
652;DHT22;310;48.490;9.200;2023-03-23T17:51:35;19.80;23.30
652;DHT22;310;48.490;9.200;2023-03-23T17:54:01;19.40;23.90
652;DHT22;310;48.490;9.200;2023-03-23T17:56:26;19.70;23.70
652;DHT22;310;48.490;9.200;2023-03-23T17:58:53;19.90;23.10
652;DHT22;310;48.490;9.200;2023-03-23T18:01:18;19.90;23.00
652;DHT22;310;48.490;9.200;2023-03-23T18:03:44;19.70;23.60
652;DHT22;310;48.490;9.200;2023-03-23T18:06:10;19.80;23.50
652;DHT22;310;48.490;9.200;2023-03-23T18:08:36;19.60;23.50
652;DHT22;310;48.490;9.200;2023-03-23T18:11:02;19.50;23.80
652;DHT22;310;48.490;9.200;2023-03-23T18:13:31;19.60;23.80
652;DHT22;310;48.490;9.200;2023-03-23T18:15:57;19.80;23.40
652;DHT22;310;48.490;9.200;2023-03-23T18:18:24;19.90;23.10
652;DHT22;310;48.490;9.200;2023-03-23T18:20:54;20.20;22.60
652;DHT22;310;48.490;9.200;2023-03-23T18:23:20;20.20;22.80
652;DHT22;310;48.490;9.200;2023-03-23T18:25:46;20.00;22.70
652;DHT22;310;48.490;9.200;2023-03-23T18:28:12;20.10;23.20
652;DHT22;310;48.490;9.200;2023-03-23T18:30:37;20.20;23.00
652;DHT22;310;48.490;9.200;2023-03-23T18:33:03;19.70;23.30
652;DHT22;310;48.490;9.200;2023-03-23T18:35:29;19.80;23.10
652;DHT22;310;48.490;9.200;2023-03-23T18:37:55;19.90;23.00
652;DHT22;310;48.490;9.200;2023-03-23T18:40:20;20.10;22.80
652;DHT22;310;48.490;9.200;2023-03-23T18:42:46;20.20;22.50
652;DHT22;310;48.490;9.200;2023-03-23T18:45:13;20.10;22.80
652;DHT22;310;48.490;9.200;2023-03-23T18:47:38;20.20;22.50
652;DHT22;310;48.490;9.200;2023-03-23T18:50:08;20.20;22.40